Terminal Aerodrome Forecast
Issued by NWS

Home | Current Version | Previous Version | Text Only | Print | Product List | Glossary On
Versions: 1 2 3 4 5 6 7 8 9 10 11 12 13 14
000
FTUS45 KRIW 251600 AAA
TAFBPI
TAF AMD
KBPI 251638Z 2517/2612 33014G22KT P6SM SCT060 SCT090
     FM260200 31009KT P6SM FEW080
     FM260500 VRB04KT P6SM SCT200=

USA.gov is the U.S. government's official web portal to all federal, state and local government web resources and services.